createdAt,value
2023-01-30T00:00:24.654Z,6.80
2023-01-30T00:03:18.995Z,6.00
2023-01-30T00:05:58.918Z,5.90
2023-01-30T00:08:28.649Z,8.30
2023-01-30T00:11:04.664Z,6.90
2023-01-30T00:13:36.403Z,6.10
2023-01-30T00:16:09.862Z,6.50
2023-01-30T00:18:48.658Z,7.20
2023-01-30T00:21:17.908Z,6.70
2023-01-30T00:23:46.954Z,5.80
2023-01-30T00:26:17.231Z,5.70
2023-01-30T00:28:46.226Z,6.90
2023-01-30T00:31:17.625Z,6.50
2023-01-30T00:33:46.032Z,7.10
2023-01-30T00:36:18.611Z,7.30
2023-01-30T00:38:48.066Z,6.10
2023-01-30T00:41:24.768Z,6.10
2023-01-30T00:44:15.563Z,6.90
2023-01-30T00:47:17.849Z,6.00
2023-01-30T00:49:57.656Z,6.80
2023-01-30T00:52:26.742Z,7.40
2023-01-30T00:55:08.422Z,5.70
2023-01-30T00:57:37.553Z,7.70
2023-01-30T01:00:08.910Z,6.30
2023-01-30T01:02:37.204Z,6.60
2023-01-30T01:05:09.836Z,6.40
2023-01-30T01:07:40.236Z,6.60
2023-01-30T01:10:10.070Z,7.20
2023-01-30T01:12:58.550Z,8.30
2023-01-30T01:15:31.181Z,7.00
2023-01-30T01:18:06.945Z,7.30
2023-01-30T01:20:35.582Z,8.10
2023-01-30T01:23:10.576Z,9.00
2023-01-30T01:25:38.877Z,7.50
2023-01-30T01:28:08.184Z,7.60
2023-01-30T01:30:38.679Z,7.40
2023-01-30T01:33:06.830Z,6.60
2023-01-30T01:35:49.404Z,6.10
2023-01-30T01:38:32.056Z,7.60
2023-01-30T01:41:05.251Z,8.50
2023-01-30T01:43:41.446Z,8.40
2023-01-30T01:46:26.152Z,8.30
2023-01-30T01:49:11.379Z,6.90
2023-01-30T01:51:45.942Z,7.40
2023-01-30T01:54:48.844Z,6.70
2023-01-30T01:57:40.349Z,7.60
2023-01-30T02:00:16.426Z,7.00
2023-01-30T02:02:56.090Z,7.20
2023-01-30T02:05:42.348Z,7.50
2023-01-30T02:08:24.810Z,6.80
2023-01-30T02:11:19.679Z,6.60
2023-01-30T02:13:55.841Z,8.00
2023-01-30T02:16:29.664Z,6.60
2023-01-30T02:19:08.416Z,7.10
2023-01-30T02:22:20.497Z,6.40
2023-01-30T02:25:02.043Z,6.60
2023-01-30T02:27:34.830Z,6.10
2023-01-30T02:30:07.586Z,6.40
2023-01-30T02:36:32.287Z,6.20
2023-01-30T02:39:23.687Z,5.60
2023-01-30T02:42:31.453Z,7.10
2023-01-30T02:45:32.678Z,6.20
2023-01-30T02:48:15.908Z,6.50
2023-01-30T02:51:15.206Z,7.60
2023-01-30T02:53:54.037Z,7.20
2023-01-30T02:56:30.208Z,6.50
2023-01-30T02:59:12.080Z,6.80
2023-01-30T03:02:09.683Z,7.00
2023-01-30T03:05:13.982Z,7.10
2023-01-30T03:08:05.379Z,6.90
2023-01-30T03:11:06.838Z,7.80
2023-01-30T03:13:59.885Z,6.70
2023-01-30T03:16:41.689Z,7.40
2023-01-30T03:19:23.095Z,7.50
2023-01-30T03:21:59.153Z,7.10
2023-01-30T03:24:48.428Z,6.50
2023-01-30T03:27:18.011Z,6.70
2023-01-30T03:29:50.742Z,8.60
2023-01-30T03:32:32.940Z,7.20
2023-01-30T03:35:10.061Z,7.30
2023-01-30T03:37:52.538Z,8.50
2023-01-30T03:40:24.538Z,6.80
2023-01-30T03:42:56.725Z,8.50
2023-01-30T03:45:32.207Z,6.90
2023-01-30T03:48:03.622Z,6.30
2023-01-30T03:50:34.960Z,6.70
2023-01-30T03:53:05.543Z,7.40
2023-01-30T03:55:49.671Z,7.50
2023-01-30T03:58:30.224Z,7.00
2023-01-30T04:01:04.377Z,6.40
2023-01-30T04:03:34.534Z,6.20
2023-01-30T04:06:15.132Z,8.00
2023-01-30T04:08:55.432Z,8.40
2023-01-30T04:11:47.803Z,6.90
2023-01-30T04:14:26.046Z,5.80
2023-01-30T04:17:18.877Z,6.40
2023-01-30T04:20:07.972Z,7.90
2023-01-30T04:22:44.951Z,8.70
2023-01-30T04:25:21.312Z,8.40
2023-01-30T04:28:00.624Z,8.20
2023-01-30T04:30:37.322Z,7.90
2023-01-30T04:33:29.728Z,7.30
2023-01-30T04:36:07.830Z,8.40
2023-01-30T04:41:23.373Z,8.30
2023-01-30T04:44:05.955Z,8.20
2023-01-30T04:46:48.659Z,7.40
2023-01-30T04:49:20.595Z,8.60
2023-01-30T04:51:52.299Z,8.30
2023-01-30T04:54:34.160Z,8.30
2023-01-30T04:57:08.267Z,8.80
2023-01-30T04:59:43.193Z,8.80
2023-01-30T05:02:15.573Z,8.60
2023-01-30T05:04:44.551Z,7.80
2023-01-30T05:07:13.725Z,7.80
2023-01-30T05:09:44.659Z,8.00
2023-01-30T05:12:26.341Z,8.00
2023-01-30T05:14:58.308Z,7.10
2023-01-30T05:17:32.839Z,7.30
2023-01-30T05:20:08.262Z,9.20
2023-01-30T05:22:43.455Z,8.40
2023-01-30T05:25:24.019Z,9.10
2023-01-30T05:27:54.420Z,9.40
2023-01-30T05:30:22.992Z,10.30
2023-01-30T05:32:51.567Z,8.50
2023-01-30T05:35:20.183Z,9.40
2023-01-30T05:37:52.418Z,9.60
2023-01-30T05:40:21.031Z,9.20
2023-01-30T05:42:53.384Z,9.70
2023-01-30T05:45:21.631Z,7.90
2023-01-30T05:47:53.586Z,9.40
2023-01-30T05:50:23.338Z,9.70
2023-01-30T05:52:51.408Z,9.50
2023-01-30T05:55:19.912Z,9.60
2023-01-30T05:57:48.380Z,9.50
2023-01-30T06:00:16.933Z,8.20
2023-01-30T06:02:45.376Z,9.10
2023-01-30T06:05:18.983Z,6.60
2023-01-30T06:08:48.782Z,6.40
2023-01-30T06:11:55.529Z,6.30
2023-01-30T06:14:49.882Z,5.00
2023-01-30T06:17:47.229Z,6.00
2023-01-30T06:23:08.472Z,5.90
2023-01-30T06:26:22.776Z,7.00
2023-01-30T06:29:41.219Z,5.60
2023-01-30T06:32:45.485Z,5.60
2023-01-30T06:35:57.457Z,6.50
2023-01-30T06:39:00.714Z,11.50
2023-01-30T06:41:57.305Z,10.60
2023-01-30T06:44:42.979Z,8.40
2023-01-30T06:48:00.638Z,8.50
2023-01-30T06:50:42.883Z,9.10
2023-01-30T06:53:47.695Z,9.20
2023-01-30T06:56:47.269Z,8.20
2023-01-30T06:59:36.239Z,8.60
2023-01-30T07:03:13.802Z,6.70
2023-01-30T07:06:27.163Z,9.70
2023-01-30T07:09:31.695Z,7.70
2023-01-30T07:13:01.051Z,7.40
2023-01-30T07:16:17.538Z,7.20
2023-01-30T07:19:15.080Z,6.40
2023-01-30T07:22:05.657Z,6.90
2023-01-30T07:25:02.078Z,9.50
2023-01-30T07:27:58.699Z,8.80
2023-01-30T07:31:21.751Z,7.50
2023-01-30T07:34:17.270Z,6.60
2023-01-30T07:37:25.570Z,5.30
2023-01-30T07:40:18.852Z,5.80
2023-01-30T07:43:26.183Z,5.60
2023-01-30T07:46:06.961Z,6.80
2023-01-30T07:48:59.726Z,6.70
2023-01-30T07:51:48.783Z,8.30
2023-01-30T07:54:31.710Z,8.40
2023-01-30T07:57:18.165Z,7.90
2023-01-30T08:00:23.966Z,7.60
2023-01-30T08:03:50.376Z,6.90
2023-01-30T08:06:59.139Z,6.60
2023-01-30T08:09:42.793Z,7.30
2023-01-30T08:12:37.607Z,6.80
2023-01-30T08:15:25.864Z,7.70
2023-01-30T08:18:35.389Z,7.40
2023-01-30T08:21:24.619Z,6.80
2023-01-30T08:24:09.087Z,7.50
2023-01-30T08:26:54.625Z,6.80
2023-01-30T08:29:59.897Z,8.70
2023-01-30T08:33:03.330Z,7.80
2023-01-30T08:35:44.465Z,7.00
2023-01-30T08:38:32.390Z,7.40
2023-01-30T08:41:17.611Z,8.10
2023-01-30T08:47:00.353Z,8.00
2023-01-30T08:50:00.278Z,7.40
2023-01-30T08:52:50.461Z,6.30
2023-01-30T08:55:57.242Z,6.30
2023-01-30T08:58:47.259Z,8.10
2023-01-30T09:01:36.632Z,7.20
2023-01-30T09:04:23.394Z,8.70
2023-01-30T09:07:08.865Z,7.20
2023-01-30T09:09:58.856Z,8.00
2023-01-30T09:12:52.359Z,6.80
2023-01-30T09:15:55.536Z,6.90
2023-01-30T09:18:58.455Z,7.80
2023-01-30T09:22:50.614Z,7.60
2023-01-30T09:28:28.813Z,6.50
2023-01-30T09:31:15.430Z,7.30
2023-01-30T09:33:53.767Z,6.60
2023-01-30T09:36:50.671Z,8.80
2023-01-30T09:39:38.219Z,6.40
2023-01-30T09:43:03.703Z,7.50
2023-01-30T09:45:57.959Z,6.10
2023-01-30T09:48:53.728Z,8.50
2023-01-30T09:52:20.256Z,6.70
2023-01-30T09:55:36.336Z,8.50
2023-01-30T09:58:24.227Z,9.40
2023-01-30T10:01:26.868Z,9.30
2023-01-30T10:04:51.751Z,6.80
2023-01-30T10:07:51.161Z,7.70
2023-01-30T10:11:28.825Z,7.30
2023-01-30T10:14:33.282Z,8.10
2023-01-30T10:17:57.496Z,8.10
2023-01-30T10:21:47.696Z,6.50
2023-01-30T10:25:09.096Z,8.00
2023-01-30T10:28:00.433Z,7.20
2023-01-30T10:30:46.645Z,9.10
2023-01-30T10:33:50.832Z,8.50
2023-01-30T10:37:36.405Z,7.20
2023-01-30T10:40:57.523Z,7.50
2023-01-30T10:44:07.066Z,7.30
2023-01-30T10:47:49.529Z,7.50
2023-01-30T10:50:59.783Z,8.30
2023-01-30T10:54:08.563Z,8.20
2023-01-30T10:57:04.901Z,8.50
2023-01-30T11:00:02.463Z,7.40
2023-01-30T11:04:16.577Z,8.60
2023-01-30T11:07:33.278Z,7.10
2023-01-30T11:10:33.700Z,7.60
2023-01-30T11:13:51.364Z,7.50
2023-01-30T11:16:48.401Z,8.30
2023-01-30T11:20:28.754Z,6.50
2023-01-30T11:23:59.610Z,7.00
2023-01-30T11:28:20.951Z,7.20
2023-01-30T11:31:45.693Z,6.90
2023-01-30T11:34:47.629Z,6.60
2023-01-30T11:38:05.534Z,6.80
2023-01-30T11:41:37.616Z,7.10
2023-01-30T11:44:31.599Z,6.30
2023-01-30T11:47:28.354Z,6.90
2023-01-30T11:51:32.259Z,6.00
2023-01-30T11:54:08.292Z,6.70
2023-01-30T11:57:21.285Z,7.10
2023-01-30T12:00:40.783Z,6.30
2023-01-30T12:03:58.693Z,7.00
2023-01-30T12:07:27.530Z,6.10
2023-01-30T12:10:27.932Z,6.90
2023-01-30T12:13:34.225Z,6.60
2023-01-30T12:16:57.647Z,6.60
2023-01-30T12:20:20.959Z,6.80
2023-01-30T12:24:02.918Z,6.40
2023-01-30T12:27:13.280Z,7.50
2023-01-30T12:30:04.111Z,6.50
2023-01-30T12:33:38.790Z,6.90
2023-01-30T12:37:19.544Z,6.60
2023-01-30T12:40:55.607Z,6.80
2023-01-30T12:44:08.181Z,6.40
2023-01-30T12:47:45.116Z,6.10
2023-01-30T12:51:49.348Z,7.20
2023-01-30T12:55:46.771Z,5.90
2023-01-30T12:59:49.831Z,5.40
2023-01-30T13:03:20.148Z,6.50
2023-01-30T13:07:13.926Z,6.30
2023-01-30T13:10:39.699Z,6.70
2023-01-30T13:14:16.784Z,6.20
2023-01-30T13:17:22.913Z,5.80
2023-01-30T13:20:34.589Z,7.00
2023-01-30T13:23:41.585Z,6.30
2023-01-30T13:26:31.317Z,5.70
2023-01-30T13:29:47.116Z,6.30
2023-01-30T13:32:44.742Z,7.50
2023-01-30T13:35:53.207Z,8.20
2023-01-30T13:38:57.660Z,6.50
2023-01-30T13:41:48.866Z,7.30
2023-01-30T13:44:33.976Z,7.80
2023-01-30T13:47:27.295Z,6.80
2023-01-30T13:50:11.072Z,7.10
2023-01-30T13:53:53.871Z,7.00
2023-01-30T13:57:27.743Z,6.40
2023-01-30T14:01:37.151Z,6.60
2023-01-30T14:05:47.404Z,7.30
2023-01-30T14:09:25.496Z,6.20
2023-01-30T14:13:31.323Z,7.00
2023-01-30T14:16:24.694Z,7.20
2023-01-30T14:19:49.449Z,7.10
2023-01-30T14:22:36.476Z,6.50
2023-01-30T14:25:51.869Z,6.50
2023-01-30T14:29:05.064Z,7.00
2023-01-30T14:32:24.416Z,7.30
2023-01-30T14:35:39.391Z,7.00
2023-01-30T14:38:25.130Z,7.60
2023-01-30T14:41:37.495Z,10.50
2023-01-30T14:44:33.571Z,7.40
2023-01-30T14:47:46.740Z,8.20
2023-01-30T14:51:10.101Z,7.00
2023-01-30T14:54:27.683Z,7.40
2023-01-30T14:57:34.978Z,6.90
2023-01-30T15:00:33.215Z,7.20
2023-01-30T15:03:34.878Z,6.70
2023-01-30T15:06:19.840Z,7.40
2023-01-30T15:09:06.027Z,7.50
2023-01-30T15:11:48.753Z,7.70
2023-01-30T15:14:42.843Z,7.40
2023-01-30T15:17:42.486Z,9.00
2023-01-30T15:20:45.103Z,8.20
2023-01-30T15:24:43.779Z,8.50
2023-01-30T15:28:16.961Z,9.70
2023-01-30T15:34:38.480Z,8.90
2023-01-30T15:38:26.120Z,8.80
2023-01-30T15:42:00.911Z,9.50
2023-01-30T15:45:22.109Z,7.70
2023-01-30T15:49:20.664Z,8.40
2023-01-30T15:52:49.494Z,7.00
2023-01-30T15:56:07.915Z,10.30
2023-01-30T15:59:40.041Z,10.80
2023-01-30T16:02:50.122Z,9.50
2023-01-30T16:05:49.441Z,9.80
2023-01-30T16:09:11.178Z,9.80
2023-01-30T16:11:45.520Z,7.90
2023-01-30T16:14:44.884Z,11.30
2023-01-30T16:17:31.981Z,9.60
2023-01-30T16:21:44.332Z,12.60
2023-01-30T16:25:22.997Z,13.50
2023-01-30T16:28:51.685Z,13.60
2023-01-30T16:31:56.576Z,20.20
2023-01-30T16:35:02.105Z,14.30
2023-01-30T16:38:09.640Z,15.40
2023-01-30T16:41:13.985Z,15.70
2023-01-30T16:44:27.762Z,17.00
2023-01-30T16:48:13.713Z,11.90
2023-01-30T16:51:30.017Z,9.60
2023-01-30T16:54:35.682Z,7.90
2023-01-30T16:58:04.442Z,8.60
2023-01-30T17:01:18.813Z,17.80
2023-01-30T17:04:21.395Z,18.30
2023-01-30T17:08:10.705Z,12.70
2023-01-30T17:11:15.609Z,14.90
2023-01-30T17:14:44.141Z,20.40
2023-01-30T17:18:09.165Z,14.70
2023-01-30T17:21:19.402Z,11.20
2023-01-30T17:24:56.014Z,10.70
2023-01-30T17:28:33.061Z,9.80
2023-01-30T17:45:40.657Z,12.00
2023-01-30T17:48:23.549Z,10.20
2023-01-30T17:51:24.318Z,8.50
2023-01-30T17:54:16.762Z,7.60
2023-01-30T17:57:11.589Z,13.80
2023-01-30T18:00:12.462Z,13.10
2023-01-30T18:03:09.599Z,16.10
2023-01-30T18:05:59.108Z,10.20
2023-01-30T18:08:49.773Z,11.00
2023-01-30T18:12:12.914Z,11.20
2023-01-30T18:14:41.126Z,11.50
2023-01-30T18:17:09.927Z,12.60
2023-01-30T18:19:41.392Z,12.00
2023-01-30T18:22:09.566Z,12.00
2023-01-30T18:24:37.478Z,15.20
2023-01-30T18:27:12.500Z,16.90
2023-01-30T18:29:47.274Z,14.20
2023-01-30T18:32:43.576Z,11.40
2023-01-30T18:35:15.337Z,10.40
2023-01-30T18:37:45.953Z,15.30
2023-01-30T18:40:16.844Z,17.30
2023-01-30T18:42:44.976Z,15.30
2023-01-30T18:45:13.008Z,13.00
2023-01-30T18:47:40.927Z,13.10
2023-01-30T18:52:44.379Z,12.30
2023-01-30T18:55:12.292Z,12.20
2023-01-30T18:57:54.837Z,12.20
2023-01-30T19:00:23.381Z,14.20
2023-01-30T19:02:55.217Z,18.00
2023-01-30T19:05:46.482Z,13.70
2023-01-30T19:08:18.866Z,12.30
2023-01-30T19:11:43.495Z,11.80
2023-01-30T19:14:26.892Z,11.40
2023-01-30T19:17:07.335Z,16.00
2023-01-30T19:19:58.213Z,11.40
2023-01-30T19:22:31.501Z,10.20
2023-01-30T19:25:12.513Z,11.80
2023-01-30T19:27:46.373Z,10.80
2023-01-30T19:30:20.051Z,14.30
2023-01-30T19:32:58.750Z,13.50
2023-01-30T19:35:35.467Z,14.70
2023-01-30T19:38:27.189Z,18.10
2023-01-30T19:41:00.742Z,16.00
2023-01-30T19:43:32.099Z,15.50
2023-01-30T19:52:15.360Z,16.50
2023-01-30T19:57:51.328Z,11.60
2023-01-30T20:00:35.690Z,13.50
2023-01-30T20:03:34.398Z,11.30
2023-01-30T20:06:34.553Z,17.00
2023-01-30T20:09:51.331Z,14.50
2023-01-30T20:13:05.216Z,11.00
2023-01-30T20:15:47.238Z,15.30
2023-01-30T20:21:34.979Z,12.60
2023-01-30T20:24:17.232Z,17.00
2023-01-30T20:26:48.401Z,13.30
2023-01-30T20:29:38.704Z,15.60
2023-01-30T20:32:08.287Z,12.60
2023-01-30T20:34:38.236Z,13.10
2023-01-30T20:37:15.632Z,15.10
2023-01-30T20:39:43.858Z,13.10
2023-01-30T20:42:24.539Z,13.40
2023-01-30T20:45:16.847Z,15.30
2023-01-30T20:47:52.147Z,15.10
2023-01-30T20:50:22.944Z,15.10
2023-01-30T20:53:05.181Z,14.70
2023-01-30T20:55:35.769Z,15.00
2023-01-30T20:58:32.324Z,11.70
2023-01-30T21:01:07.046Z,13.80
2023-01-30T21:03:47.061Z,13.60
2023-01-30T21:06:37.106Z,16.80
2023-01-30T21:09:20.896Z,12.40
2023-01-30T21:11:54.806Z,14.90
2023-01-30T21:14:24.956Z,17.50
2023-01-30T21:16:58.593Z,18.70
2023-01-30T21:19:31.806Z,26.70
2023-01-30T21:22:09.888Z,18.80
2023-01-30T21:24:53.170Z,18.10
2023-01-30T21:27:23.926Z,13.60
2023-01-30T21:29:59.139Z,12.30
2023-01-30T21:32:49.367Z,18.00
2023-01-30T21:35:21.572Z,14.40
2023-01-30T21:38:22.793Z,16.70
2023-01-30T21:41:11.851Z,14.50
2023-01-30T21:43:43.740Z,13.10
2023-01-30T21:46:16.824Z,12.70
2023-01-30T21:49:01.870Z,13.10
2023-01-30T21:54:03.991Z,20.00
2023-01-30T21:56:33.490Z,17.50
2023-01-30T21:59:02.099Z,15.80
2023-01-30T22:01:32.098Z,17.30
2023-01-30T22:04:07.349Z,11.50
2023-01-30T22:06:44.087Z,10.70
2023-01-30T22:09:20.061Z,9.50
2023-01-30T22:11:49.560Z,12.30
2023-01-30T22:14:21.407Z,16.00
2023-01-30T22:16:57.450Z,15.30
2023-01-30T22:19:47.496Z,13.40
2023-01-30T22:22:24.837Z,10.50
2023-01-30T22:25:00.542Z,11.50
2023-01-30T22:27:29.685Z,13.10
2023-01-30T22:29:58.376Z,12.40
2023-01-30T22:32:32.091Z,11.80
2023-01-30T22:37:39.838Z,11.40
2023-01-30T22:40:08.771Z,18.10
2023-01-30T22:42:40.275Z,15.00
2023-01-30T22:45:12.940Z,11.30
2023-01-30T22:47:44.974Z,14.00
2023-01-30T22:50:17.900Z,11.20
2023-01-30T22:52:52.244Z,10.00
2023-01-30T22:55:24.137Z,11.90
2023-01-30T22:57:54.084Z,10.60
2023-01-30T23:00:24.635Z,14.10
2023-01-30T23:02:53.789Z,12.20
2023-01-30T23:05:22.157Z,13.70
2023-01-30T23:07:53.637Z,11.10
2023-01-30T23:10:53.388Z,11.80
2023-01-30T23:13:30.843Z,13.90
2023-01-30T23:16:07.294Z,14.90
2023-01-30T23:18:56.780Z,13.70
2023-01-30T23:21:40.339Z,13.80
2023-01-30T23:24:18.579Z,11.30
2023-01-30T23:26:48.503Z,12.00
2023-01-30T23:29:22.816Z,12.70
2023-01-30T23:31:51.325Z,14.70
2023-01-30T23:34:21.436Z,15.10
2023-01-30T23:36:54.633Z,17.60
2023-01-30T23:39:23.439Z,14.40
2023-01-30T23:41:55.840Z,12.70
2023-01-30T23:44:38.002Z,10.90
2023-01-30T23:47:06.963Z,12.20
2023-01-30T23:49:40.744Z,14.90
2023-01-30T23:52:16.777Z,12.80
2023-01-30T23:54:50.170Z,12.80
